sensor_id;sensor_type;location;lat;lon;timestamp;P1;durP1;ratioP1;P2;durP2;ratioP2
5054;SDS011;13829;48.990;8.346;2023-08-24T00:01:58;7.80;;;6.10;;
5054;SDS011;13829;48.990;8.346;2023-08-24T00:04:25;9.77;;;6.72;;
5054;SDS011;13829;48.990;8.346;2023-08-24T00:06:52;11.00;;;6.25;;
5054;SDS011;13829;48.990;8.346;2023-08-24T00:09:19;7.45;;;6.32;;
5054;SDS011;13829;48.990;8.346;2023-08-24T00:11:46;6.22;;;5.63;;
5054;SDS011;13829;48.990;8.346;2023-08-24T00:14:13;8.15;;;6.18;;
5054;SDS011;13829;48.990;8.346;2023-08-24T00:16:41;6.47;;;5.88;;
5054;SDS011;13829;48.990;8.346;2023-08-24T00:19:09;7.20;;;6.50;;
5054;SDS011;13829;48.990;8.346;2023-08-24T00:21:35;6.75;;;6.10;;
5054;SDS011;13829;48.990;8.346;2023-08-24T00:24:03;9.73;;;6.20;;
5054;SDS011;13829;48.990;8.346;2023-08-24T00:26:30;8.27;;;6.60;;
5054;SDS011;13829;48.990;8.346;2023-08-24T00:28:57;8.98;;;6.22;;
5054;SDS011;13829;48.990;8.346;2023-08-24T00:31:24;6.85;;;5.70;;
5054;SDS011;13829;48.990;8.346;2023-08-24T00:33:52;11.98;;;6.40;;
5054;SDS011;13829;48.990;8.346;2023-08-24T00:36:19;7.35;;;6.65;;
5054;SDS011;13829;48.990;8.346;2023-08-24T00:38:48;7.57;;;6.45;;
5054;SDS011;13829;48.990;8.346;2023-08-24T00:41:16;6.90;;;6.20;;
5054;SDS011;13829;48.990;8.346;2023-08-24T00:43:44;7.63;;;6.38;;
5054;SDS011;13829;48.990;8.346;2023-08-24T00:46:11;10.05;;;6.30;;
5054;SDS011;13829;48.990;8.346;2023-08-24T00:48:39;8.57;;;6.65;;
5054;SDS011;13829;48.990;8.346;2023-08-24T00:51:07;7.25;;;6.07;;
5054;SDS011;13829;48.990;8.346;2023-08-24T00:53:34;10.80;;;6.72;;
5054;SDS011;13829;48.990;8.346;2023-08-24T00:56:03;8.40;;;5.93;;
5054;SDS011;13829;48.990;8.346;2023-08-24T00:58:31;6.47;;;5.85;;
5054;SDS011;13829;48.990;8.346;2023-08-24T01:00:59;7.13;;;6.38;;
5054;SDS011;13829;48.990;8.346;2023-08-24T01:03:26;6.47;;;5.85;;
5054;SDS011;13829;48.990;8.346;2023-08-24T01:05:53;7.18;;;6.10;;
5054;SDS011;13829;48.990;8.346;2023-08-24T01:08:22;6.35;;;5.70;;
5054;SDS011;13829;48.990;8.346;2023-08-24T01:10:52;6.78;;;5.80;;
5054;SDS011;13829;48.990;8.346;2023-08-24T01:13:30;6.20;;;5.50;;
5054;SDS011;13829;48.990;8.346;2023-08-24T01:16:08;6.50;;;5.90;;
5054;SDS011;13829;48.990;8.346;2023-08-24T01:18:42;6.45;;;5.85;;
5054;SDS011;13829;48.990;8.346;2023-08-24T01:21:10;7.40;;;6.70;;
5054;SDS011;13829;48.990;8.346;2023-08-24T01:23:43;8.32;;;6.70;;
5054;SDS011;13829;48.990;8.346;2023-08-24T01:26:32;7.57;;;6.43;;
5054;SDS011;13829;48.990;8.346;2023-08-24T01:29:01;8.07;;;6.93;;
5054;SDS011;13829;48.990;8.346;2023-08-24T01:31:30;9.68;;;6.95;;
5054;SDS011;13829;48.990;8.346;2023-08-24T01:33:57;7.28;;;6.57;;
5054;SDS011;13829;48.990;8.346;2023-08-24T01:36:25;8.00;;;6.45;;
5054;SDS011;13829;48.990;8.346;2023-08-24T01:38:53;7.35;;;6.22;;
5054;SDS011;13829;48.990;8.346;2023-08-24T01:41:34;7.30;;;6.47;;
5054;SDS011;13829;48.990;8.346;2023-08-24T01:44:03;7.18;;;6.50;;
5054;SDS011;13829;48.990;8.346;2023-08-24T01:46:34;7.93;;;7.13;;
5054;SDS011;13829;48.990;8.346;2023-08-24T01:49:03;6.68;;;6.00;;
5054;SDS011;13829;48.990;8.346;2023-08-24T01:51:33;8.57;;;6.63;;
5054;SDS011;13829;48.990;8.346;2023-08-24T01:54:01;7.55;;;6.85;;
5054;SDS011;13829;48.990;8.346;2023-08-24T01:56:28;6.88;;;6.18;;
5054;SDS011;13829;48.990;8.346;2023-08-24T01:58:56;8.35;;;6.57;;
5054;SDS011;13829;48.990;8.346;2023-08-24T02:01:23;9.27;;;6.40;;
5054;SDS011;13829;48.990;8.346;2023-08-24T02:03:50;8.18;;;5.93;;
5054;SDS011;13829;48.990;8.346;2023-08-24T02:06:17;10.05;;;6.28;;
5054;SDS011;13829;48.990;8.346;2023-08-24T02:08:44;7.72;;;5.78;;
5054;SDS011;13829;48.990;8.346;2023-08-24T02:11:11;8.65;;;5.82;;
5054;SDS011;13829;48.990;8.346;2023-08-24T02:13:38;7.03;;;5.88;;
5054;SDS011;13829;48.990;8.346;2023-08-24T02:16:07;8.40;;;6.55;;
5054;SDS011;13829;48.990;8.346;2023-08-24T02:18:35;8.63;;;6.50;;
5054;SDS011;13829;48.990;8.346;2023-08-24T02:21:06;10.38;;;6.68;;
5054;SDS011;13829;48.990;8.346;2023-08-24T02:23:35;7.32;;;6.15;;
5054;SDS011;13829;48.990;8.346;2023-08-24T02:26:02;11.50;;;7.00;;
5054;SDS011;13829;48.990;8.346;2023-08-24T02:28:29;8.27;;;5.90;;
5054;SDS011;13829;48.990;8.346;2023-08-24T02:30:59;7.00;;;6.30;;
5054;SDS011;13829;48.990;8.346;2023-08-24T02:33:29;8.25;;;6.05;;
5054;SDS011;13829;48.990;8.346;2023-08-24T02:35:56;8.10;;;6.00;;
5054;SDS011;13829;48.990;8.346;2023-08-24T02:38:23;8.43;;;6.40;;
5054;SDS011;13829;48.990;8.346;2023-08-24T02:40:59;9.45;;;6.47;;
5054;SDS011;13829;48.990;8.346;2023-08-24T02:43:28;11.13;;;6.97;;
5054;SDS011;13829;48.990;8.346;2023-08-24T02:45:59;9.02;;;5.93;;
5054;SDS011;13829;48.990;8.346;2023-08-24T02:48:29;10.10;;;6.22;;
5054;SDS011;13829;48.990;8.346;2023-08-24T02:50:57;9.00;;;6.40;;
5054;SDS011;13829;48.990;8.346;2023-08-24T02:53:24;9.30;;;7.05;;
5054;SDS011;13829;48.990;8.346;2023-08-24T02:55:52;8.43;;;7.45;;
5054;SDS011;13829;48.990;8.346;2023-08-24T02:58:19;10.80;;;7.32;;
5054;SDS011;13829;48.990;8.346;2023-08-24T03:00:46;10.73;;;6.47;;
5054;SDS011;13829;48.990;8.346;2023-08-24T03:03:13;13.10;;;7.25;;
5054;SDS011;13829;48.990;8.346;2023-08-24T03:05:42;9.57;;;7.20;;
5054;SDS011;13829;48.990;8.346;2023-08-24T03:08:20;9.50;;;6.35;;
5054;SDS011;13829;48.990;8.346;2023-08-24T03:10:46;8.32;;;6.78;;
5054;SDS011;13829;48.990;8.346;2023-08-24T03:13:13;7.72;;;6.70;;
5054;SDS011;13829;48.990;8.346;2023-08-24T03:15:40;9.02;;;6.53;;
5054;SDS011;13829;48.990;8.346;2023-08-24T03:18:08;7.25;;;6.35;;
5054;SDS011;13829;48.990;8.346;2023-08-24T03:20:37;11.10;;;7.35;;
5054;SDS011;13829;48.990;8.346;2023-08-24T03:23:05;14.13;;;6.85;;
5054;SDS011;13829;48.990;8.346;2023-08-24T03:25:35;9.75;;;7.13;;
5054;SDS011;13829;48.990;8.346;2023-08-24T03:28:03;10.35;;;7.13;;
5054;SDS011;13829;48.990;8.346;2023-08-24T03:30:32;10.73;;;6.90;;
5054;SDS011;13829;48.990;8.346;2023-08-24T03:33:01;11.15;;;6.95;;
5054;SDS011;13829;48.990;8.346;2023-08-24T03:35:29;12.35;;;7.57;;
5054;SDS011;13829;48.990;8.346;2023-08-24T03:37:57;9.13;;;6.90;;
5054;SDS011;13829;48.990;8.346;2023-08-24T03:40:26;9.35;;;7.07;;
5054;SDS011;13829;48.990;8.346;2023-08-24T03:42:53;8.75;;;7.57;;
5054;SDS011;13829;48.990;8.346;2023-08-24T03:45:20;9.27;;;6.70;;
5054;SDS011;13829;48.990;8.346;2023-08-24T03:47:47;9.27;;;6.85;;
5054;SDS011;13829;48.990;8.346;2023-08-24T03:50:15;10.98;;;7.18;;
5054;SDS011;13829;48.990;8.346;2023-08-24T03:52:42;9.93;;;6.45;;
5054;SDS011;13829;48.990;8.346;2023-08-24T03:55:09;9.27;;;7.05;;
5054;SDS011;13829;48.990;8.346;2023-08-24T03:57:38;11.73;;;6.82;;
5054;SDS011;13829;48.990;8.346;2023-08-24T04:00:05;8.07;;;6.93;;
5054;SDS011;13829;48.990;8.346;2023-08-24T04:02:36;10.45;;;7.25;;
5054;SDS011;13829;48.990;8.346;2023-08-24T04:05:03;7.80;;;6.35;;
5054;SDS011;13829;48.990;8.346;2023-08-24T04:07:31;7.82;;;6.45;;
5054;SDS011;13829;48.990;8.346;2023-08-24T04:09:58;7.95;;;7.15;;
5054;SDS011;13829;48.990;8.346;2023-08-24T04:12:25;9.20;;;6.75;;
5054;SDS011;13829;48.990;8.346;2023-08-24T04:14:53;7.13;;;6.43;;
5054;SDS011;13829;48.990;8.346;2023-08-24T04:17:22;7.70;;;6.55;;
5054;SDS011;13829;48.990;8.346;2023-08-24T04:19:49;7.45;;;6.28;;
5054;SDS011;13829;48.990;8.346;2023-08-24T04:22:16;8.63;;;6.20;;
5054;SDS011;13829;48.990;8.346;2023-08-24T04:24:43;9.50;;;6.38;;
5054;SDS011;13829;48.990;8.346;2023-08-24T04:27:10;8.30;;;6.55;;
5054;SDS011;13829;48.990;8.346;2023-08-24T04:29:37;7.38;;;6.57;;
5054;SDS011;13829;48.990;8.346;2023-08-24T04:32:05;11.02;;;7.10;;
5054;SDS011;13829;48.990;8.346;2023-08-24T04:34:33;10.80;;;7.75;;
5054;SDS011;13829;48.990;8.346;2023-08-24T04:37:00;8.82;;;6.70;;
5054;SDS011;13829;48.990;8.346;2023-08-24T04:39:28;9.10;;;7.10;;
5054;SDS011;13829;48.990;8.346;2023-08-24T04:41:55;11.90;;;7.20;;
5054;SDS011;13829;48.990;8.346;2023-08-24T04:44:22;7.32;;;6.57;;
5054;SDS011;13829;48.990;8.346;2023-08-24T04:46:49;8.35;;;7.00;;
5054;SDS011;13829;48.990;8.346;2023-08-24T04:49:18;8.35;;;7.00;;
5054;SDS011;13829;48.990;8.346;2023-08-24T04:51:45;9.90;;;7.30;;
5054;SDS011;13829;48.990;8.346;2023-08-24T04:54:11;9.95;;;7.40;;
5054;SDS011;13829;48.990;8.346;2023-08-24T04:56:38;6.93;;;6.20;;
5054;SDS011;13829;48.990;8.346;2023-08-24T04:59:05;13.82;;;7.22;;
5054;SDS011;13829;48.990;8.346;2023-08-24T05:01:33;7.78;;;6.93;;
5054;SDS011;13829;48.990;8.346;2023-08-24T05:04:00;11.80;;;7.38;;
5054;SDS011;13829;48.990;8.346;2023-08-24T05:06:28;8.00;;;6.22;;
5054;SDS011;13829;48.990;8.346;2023-08-24T05:08:56;9.27;;;6.90;;
5054;SDS011;13829;48.990;8.346;2023-08-24T05:11:23;8.57;;;6.97;;
5054;SDS011;13829;48.990;8.346;2023-08-24T05:13:54;10.75;;;6.63;;
5054;SDS011;13829;48.990;8.346;2023-08-24T05:16:21;10.52;;;6.72;;
5054;SDS011;13829;48.990;8.346;2023-08-24T05:18:48;7.95;;;6.50;;
5054;SDS011;13829;48.990;8.346;2023-08-24T05:21:15;9.18;;;6.93;;
5054;SDS011;13829;48.990;8.346;2023-08-24T05:23:43;7.25;;;6.55;;
5054;SDS011;13829;48.990;8.346;2023-08-24T05:26:10;7.38;;;6.65;;
5054;SDS011;13829;48.990;8.346;2023-08-24T05:28:37;9.27;;;7.35;;
5054;SDS011;13829;48.990;8.346;2023-08-24T05:31:04;8.18;;;7.38;;
5054;SDS011;13829;48.990;8.346;2023-08-24T05:33:31;10.93;;;7.18;;
5054;SDS011;13829;48.990;8.346;2023-08-24T05:35:58;9.70;;;7.32;;
5054;SDS011;13829;48.990;8.346;2023-08-24T05:38:25;12.02;;;6.20;;
5054;SDS011;13829;48.990;8.346;2023-08-24T05:40:53;8.82;;;7.07;;
5054;SDS011;13829;48.990;8.346;2023-08-24T05:43:20;8.60;;;6.60;;
5054;SDS011;13829;48.990;8.346;2023-08-24T05:45:47;8.43;;;6.40;;
5054;SDS011;13829;48.990;8.346;2023-08-24T05:48:15;7.47;;;6.18;;
5054;SDS011;13829;48.990;8.346;2023-08-24T05:50:42;9.77;;;6.03;;
5054;SDS011;13829;48.990;8.346;2023-08-24T05:53:10;8.75;;;6.30;;
5054;SDS011;13829;48.990;8.346;2023-08-24T05:55:37;7.63;;;6.25;;
5054;SDS011;13829;48.990;8.346;2023-08-24T05:58:06;8.23;;;6.57;;
5054;SDS011;13829;48.990;8.346;2023-08-24T06:00:32;7.53;;;6.40;;
5054;SDS011;13829;48.990;8.346;2023-08-24T06:03:00;7.00;;;6.30;;
5054;SDS011;13829;48.990;8.346;2023-08-24T06:05:29;9.32;;;5.50;;
5054;SDS011;13829;48.990;8.346;2023-08-24T06:07:56;8.88;;;6.10;;
5054;SDS011;13829;48.990;8.346;2023-08-24T06:10:23;7.10;;;6.20;;
5054;SDS011;13829;48.990;8.346;2023-08-24T06:12:51;8.50;;;6.65;;
5054;SDS011;13829;48.990;8.346;2023-08-24T06:15:19;9.30;;;5.80;;
5054;SDS011;13829;48.990;8.346;2023-08-24T06:17:49;6.65;;;6.00;;
5054;SDS011;13829;48.990;8.346;2023-08-24T06:20:16;6.82;;;5.63;;
5054;SDS011;13829;48.990;8.346;2023-08-24T06:22:43;6.47;;;5.50;;
5054;SDS011;13829;48.990;8.346;2023-08-24T06:25:10;8.18;;;5.55;;
5054;SDS011;13829;48.990;8.346;2023-08-24T06:27:37;7.63;;;5.40;;
5054;SDS011;13829;48.990;8.346;2023-08-24T06:30:05;5.72;;;5.05;;
5054;SDS011;13829;48.990;8.346;2023-08-24T06:32:34;8.10;;;5.57;;
5054;SDS011;13829;48.990;8.346;2023-08-24T06:35:02;6.97;;;4.72;;
5054;SDS011;13829;48.990;8.346;2023-08-24T06:37:29;7.35;;;5.03;;
5054;SDS011;13829;48.990;8.346;2023-08-24T06:39:56;7.65;;;4.80;;
5054;SDS011;13829;48.990;8.346;2023-08-24T06:42:23;6.00;;;4.38;;
5054;SDS011;13829;48.990;8.346;2023-08-24T06:44:50;5.00;;;4.47;;
5054;SDS011;13829;48.990;8.346;2023-08-24T06:47:17;4.68;;;4.18;;
5054;SDS011;13829;48.990;8.346;2023-08-24T06:49:45;8.02;;;4.45;;
5054;SDS011;13829;48.990;8.346;2023-08-24T06:52:12;6.53;;;4.18;;
5054;SDS011;13829;48.990;8.346;2023-08-24T06:54:39;7.03;;;4.28;;
5054;SDS011;13829;48.990;8.346;2023-08-24T06:57:06;7.90;;;3.75;;
5054;SDS011;13829;48.990;8.346;2023-08-24T06:59:33;5.45;;;3.92;;
5054;SDS011;13829;48.990;8.346;2023-08-24T07:02:00;9.77;;;4.22;;
5054;SDS011;13829;48.990;8.346;2023-08-24T07:04:29;6.57;;;3.70;;
5054;SDS011;13829;48.990;8.346;2023-08-24T07:06:57;6.43;;;3.55;;
5054;SDS011;13829;48.990;8.346;2023-08-24T07:09:24;5.40;;;3.75;;
5054;SDS011;13829;48.990;8.346;2023-08-24T07:11:52;8.85;;;3.65;;
5054;SDS011;13829;48.990;8.346;2023-08-24T07:14:19;4.95;;;2.90;;
5054;SDS011;13829;48.990;8.346;2023-08-24T07:16:46;4.63;;;3.15;;
5054;SDS011;13829;48.990;8.346;2023-08-24T07:19:13;4.15;;;3.22;;
5054;SDS011;13829;48.990;8.346;2023-08-24T07:21:40;4.97;;;3.38;;
5054;SDS011;13829;48.990;8.346;2023-08-24T07:24:08;8.85;;;3.53;;
5054;SDS011;13829;48.990;8.346;2023-08-24T07:26:35;4.57;;;3.17;;
5054;SDS011;13829;48.990;8.346;2023-08-24T07:29:02;3.78;;;3.05;;
5054;SDS011;13829;48.990;8.346;2023-08-24T07:31:29;5.10;;;3.05;;
5054;SDS011;13829;48.990;8.346;2023-08-24T07:33:56;7.78;;;3.15;;
5054;SDS011;13829;48.990;8.346;2023-08-24T07:36:23;7.18;;;2.55;;
5054;SDS011;13829;48.990;8.346;2023-08-24T07:38:51;3.63;;;2.95;;
5054;SDS011;13829;48.990;8.346;2023-08-24T07:41:19;6.90;;;2.72;;
5054;SDS011;13829;48.990;8.346;2023-08-24T07:43:46;4.35;;;2.97;;
5054;SDS011;13829;48.990;8.346;2023-08-24T07:46:13;6.97;;;2.95;;
5054;SDS011;13829;48.990;8.346;2023-08-24T07:48:40;3.47;;;2.85;;
5054;SDS011;13829;48.990;8.346;2023-08-24T07:51:07;4.50;;;2.70;;
5054;SDS011;13829;48.990;8.346;2023-08-24T07:53:34;2.92;;;2.55;;
5054;SDS011;13829;48.990;8.346;2023-08-24T07:56:01;3.92;;;2.95;;
5054;SDS011;13829;48.990;8.346;2023-08-24T07:58:29;5.40;;;3.25;;
5054;SDS011;13829;48.990;8.346;2023-08-24T08:00:57;3.72;;;2.70;;
5054;SDS011;13829;48.990;8.346;2023-08-24T08:03:24;3.78;;;3.10;;
5054;SDS011;13829;48.990;8.346;2023-08-24T08:05:52;5.78;;;3.30;;
5054;SDS011;13829;48.990;8.346;2023-08-24T08:08:19;4.30;;;3.13;;
5054;SDS011;13829;48.990;8.346;2023-08-24T08:10:46;6.20;;;3.20;;
5054;SDS011;13829;48.990;8.346;2023-08-24T08:13:13;5.35;;;3.08;;
5054;SDS011;13829;48.990;8.346;2023-08-24T08:15:41;7.22;;;3.15;;
5054;SDS011;13829;48.990;8.346;2023-08-24T08:18:08;3.00;;;2.70;;
5054;SDS011;13829;48.990;8.346;2023-08-24T08:20:35;5.50;;;3.40;;
5054;SDS011;13829;48.990;8.346;2023-08-24T08:23:02;4.40;;;3.53;;
5054;SDS011;13829;48.990;8.346;2023-08-24T08:25:29;5.55;;;3.38;;
5054;SDS011;13829;48.990;8.346;2023-08-24T08:27:56;4.70;;;2.97;;
5054;SDS011;13829;48.990;8.346;2023-08-24T08:30:23;3.78;;;3.33;;
5054;SDS011;13829;48.990;8.346;2023-08-24T08:32:51;5.28;;;3.70;;
5054;SDS011;13829;48.990;8.346;2023-08-24T08:35:21;7.57;;;3.33;;
5054;SDS011;13829;48.990;8.346;2023-08-24T08:37:48;4.18;;;3.13;;
5054;SDS011;13829;48.990;8.346;2023-08-24T08:40:17;3.90;;;2.80;;
5054;SDS011;13829;48.990;8.346;2023-08-24T08:42:44;5.57;;;3.20;;
5054;SDS011;13829;48.990;8.346;2023-08-24T08:45:12;7.80;;;3.50;;
5054;SDS011;13829;48.990;8.346;2023-08-24T08:47:39;4.47;;;3.10;;
5054;SDS011;13829;48.990;8.346;2023-08-24T08:50:09;5.97;;;3.45;;
5054;SDS011;13829;48.990;8.346;2023-08-24T08:52:36;6.10;;;3.72;;
5054;SDS011;13829;48.990;8.346;2023-08-24T08:55:03;5.93;;;3.50;;
5054;SDS011;13829;48.990;8.346;2023-08-24T08:57:34;8.13;;;3.45;;
5054;SDS011;13829;48.990;8.346;2023-08-24T09:00:02;5.78;;;3.20;;
5054;SDS011;13829;48.990;8.346;2023-08-24T09:02:32;6.75;;;3.50;;
5054;SDS011;13829;48.990;8.346;2023-08-24T09:05:00;4.95;;;3.13;;
5054;SDS011;13829;48.990;8.346;2023-08-24T09:07:30;4.07;;;3.35;;
5054;SDS011;13829;48.990;8.346;2023-08-24T09:10:00;7.07;;;4.30;;
5054;SDS011;13829;48.990;8.346;2023-08-24T09:12:30;8.60;;;3.65;;
5054;SDS011;13829;48.990;8.346;2023-08-24T09:14:58;7.45;;;3.75;;
5054;SDS011;13829;48.990;8.346;2023-08-24T09:17:25;5.72;;;3.88;;
5054;SDS011;13829;48.990;8.346;2023-08-24T09:19:55;4.20;;;3.67;;
5054;SDS011;13829;48.990;8.346;2023-08-24T09:22:25;8.57;;;3.67;;
5054;SDS011;13829;48.990;8.346;2023-08-24T09:24:53;3.92;;;3.42;;
5054;SDS011;13829;48.990;8.346;2023-08-24T09:27:21;6.40;;;3.80;;
5054;SDS011;13829;48.990;8.346;2023-08-24T09:29:48;6.35;;;3.60;;
5054;SDS011;13829;48.990;8.346;2023-08-24T09:32:20;10.82;;;4.18;;
5054;SDS011;13829;48.990;8.346;2023-08-24T09:34:48;4.90;;;4.03;;
5054;SDS011;13829;48.990;8.346;2023-08-24T09:37:15;5.82;;;3.95;;
5054;SDS011;13829;48.990;8.346;2023-08-24T09:39:43;5.50;;;3.65;;
5054;SDS011;13829;48.990;8.346;2023-08-24T09:42:12;5.78;;;3.38;;
5054;SDS011;13829;48.990;8.346;2023-08-24T09:44:43;7.53;;;3.92;;
5054;SDS011;13829;48.990;8.346;2023-08-24T09:47:10;5.72;;;4.13;;
5054;SDS011;13829;48.990;8.346;2023-08-24T09:49:38;9.23;;;3.95;;
5054;SDS011;13829;48.990;8.346;2023-08-24T09:52:06;7.30;;;5.30;;
5054;SDS011;13829;48.990;8.346;2023-08-24T09:54:36;6.57;;;4.80;;
5054;SDS011;13829;48.990;8.346;2023-08-24T09:57:04;5.15;;;4.18;;
5054;SDS011;13829;48.990;8.346;2023-08-24T09:59:35;8.23;;;4.28;;
5054;SDS011;13829;48.990;8.346;2023-08-24T10:02:10;7.68;;;3.80;;
5054;SDS011;13829;48.990;8.346;2023-08-24T10:04:43;6.85;;;4.78;;
5054;SDS011;13829;48.990;8.346;2023-08-24T10:07:13;5.00;;;4.15;;
5054;SDS011;13829;48.990;8.346;2023-08-24T10:09:47;5.15;;;4.63;;
5054;SDS011;13829;48.990;8.346;2023-08-24T10:12:26;6.35;;;4.68;;
5054;SDS011;13829;48.990;8.346;2023-08-24T10:14:59;6.90;;;4.30;;
5054;SDS011;13829;48.990;8.346;2023-08-24T10:17:27;5.57;;;4.72;;
5054;SDS011;13829;48.990;8.346;2023-08-24T10:19:57;7.20;;;4.65;;
5054;SDS011;13829;48.990;8.346;2023-08-24T10:22:28;8.68;;;4.55;;
5054;SDS011;13829;48.990;8.346;2023-08-24T10:24:57;9.73;;;5.00;;
5054;SDS011;13829;48.990;8.346;2023-08-24T10:27:25;9.88;;;4.63;;
5054;SDS011;13829;48.990;8.346;2023-08-24T10:29:55;7.55;;;4.72;;
5054;SDS011;13829;48.990;8.346;2023-08-24T10:32:24;8.00;;;5.10;;
5054;SDS011;13829;48.990;8.346;2023-08-24T10:34:53;9.45;;;5.45;;
5054;SDS011;13829;48.990;8.346;2023-08-24T10:37:24;6.60;;;4.80;;
5054;SDS011;13829;48.990;8.346;2023-08-24T10:39:53;9.45;;;4.72;;
5054;SDS011;13829;48.990;8.346;2023-08-24T10:42:20;7.13;;;4.70;;
5054;SDS011;13829;48.990;8.346;2023-08-24T10:44:47;10.25;;;4.82;;
5054;SDS011;13829;48.990;8.346;2023-08-24T10:47:15;13.43;;;4.90;;
5054;SDS011;13829;48.990;8.346;2023-08-24T10:49:57;6.40;;;4.40;;
5054;SDS011;13829;48.990;8.346;2023-08-24T10:52:26;10.13;;;5.43;;
5054;SDS011;13829;48.990;8.346;2023-08-24T10:54:59;9.30;;;5.20;;
5054;SDS011;13829;48.990;8.346;2023-08-24T10:57:34;5.97;;;4.45;;
5054;SDS011;13829;48.990;8.346;2023-08-24T11:00:03;6.90;;;5.13;;
5054;SDS011;13829;48.990;8.346;2023-08-24T11:02:43;8.48;;;4.63;;
5054;SDS011;13829;48.990;8.346;2023-08-24T11:05:17;8.35;;;4.60;;
5054;SDS011;13829;48.990;8.346;2023-08-24T11:07:55;5.25;;;4.75;;
5054;SDS011;13829;48.990;8.346;2023-08-24T11:10:25;13.65;;;5.60;;
5054;SDS011;13829;48.990;8.346;2023-08-24T11:13:07;8.10;;;5.22;;
5054;SDS011;13829;48.990;8.346;2023-08-24T11:15:39;6.28;;;5.38;;
5054;SDS011;13829;48.990;8.346;2023-08-24T11:18:11;6.28;;;4.78;;
5054;SDS011;13829;48.990;8.346;2023-08-24T11:20:48;8.38;;;4.93;;
5054;SDS011;13829;48.990;8.346;2023-08-24T11:23:18;7.28;;;5.25;;
5054;SDS011;13829;48.990;8.346;2023-08-24T11:25:47;7.25;;;4.95;;
5054;SDS011;13829;48.990;8.346;2023-08-24T11:28:16;5.45;;;4.55;;
5054;SDS011;13829;48.990;8.346;2023-08-24T11:30:45;5.43;;;4.72;;
5054;SDS011;13829;48.990;8.346;2023-08-24T11:33:13;6.47;;;5.40;;
5054;SDS011;13829;48.990;8.346;2023-08-24T11:35:42;5.57;;;4.93;;
5054;SDS011;13829;48.990;8.346;2023-08-24T11:38:12;7.13;;;5.38;;
5054;SDS011;13829;48.990;8.346;2023-08-24T11:40:39;7.57;;;5.35;;
5054;SDS011;13829;48.990;8.346;2023-08-24T11:43:06;9.82;;;5.55;;
5054;SDS011;13829;48.990;8.346;2023-08-24T11:45:33;7.55;;;5.63;;
5054;SDS011;13829;48.990;8.346;2023-08-24T11:48:05;6.30;;;5.53;;
5054;SDS011;13829;48.990;8.346;2023-08-24T11:50:34;8.00;;;5.13;;
5054;SDS011;13829;48.990;8.346;2023-08-24T11:53:06;9.90;;;5.70;;
5054;SDS011;13829;48.990;8.346;2023-08-24T11:55:36;7.80;;;5.90;;
5054;SDS011;13829;48.990;8.346;2023-08-24T11:58:13;5.28;;;4.85;;
5054;SDS011;13829;48.990;8.346;2023-08-24T12:00:41;6.63;;;5.13;;
5054;SDS011;13829;48.990;8.346;2023-08-24T12:03:09;7.45;;;5.50;;
5054;SDS011;13829;48.990;8.346;2023-08-24T12:05:37;8.48;;;5.25;;
5054;SDS011;13829;48.990;8.346;2023-08-24T12:08:04;8.60;;;5.00;;
5054;SDS011;13829;48.990;8.346;2023-08-24T12:10:32;7.45;;;5.80;;
5054;SDS011;13829;48.990;8.346;2023-08-24T12:13:02;6.40;;;5.28;;
5054;SDS011;13829;48.990;8.346;2023-08-24T12:15:33;11.88;;;5.95;;
5054;SDS011;13829;48.990;8.346;2023-08-24T12:18:06;8.77;;;6.03;;
5054;SDS011;13829;48.990;8.346;2023-08-24T12:20:34;10.15;;;9.02;;
5054;SDS011;13829;48.990;8.346;2023-08-24T12:23:02;8.52;;;5.55;;
5054;SDS011;13829;48.990;8.346;2023-08-24T12:25:29;7.28;;;5.63;;
5054;SDS011;13829;48.990;8.346;2023-08-24T12:28:11;7.72;;;5.50;;
5054;SDS011;13829;48.990;8.346;2023-08-24T12:30:44;8.68;;;5.72;;
5054;SDS011;13829;48.990;8.346;2023-08-24T12:33:25;6.65;;;5.68;;
5054;SDS011;13829;48.990;8.346;2023-08-24T12:35:54;7.97;;;6.68;;
5054;SDS011;13829;48.990;8.346;2023-08-24T12:38:21;7.63;;;5.50;;
5054;SDS011;13829;48.990;8.346;2023-08-24T12:40:50;11.38;;;6.22;;
5054;SDS011;13829;48.990;8.346;2023-08-24T12:43:18;10.38;;;6.28;;
5054;SDS011;13829;48.990;8.346;2023-08-24T12:45:46;8.32;;;6.28;;
5054;SDS011;13829;48.990;8.346;2023-08-24T12:48:12;8.00;;;6.20;;
5054;SDS011;13829;48.990;8.346;2023-08-24T12:50:39;7.68;;;5.95;;
5054;SDS011;13829;48.990;8.346;2023-08-24T12:53:06;9.60;;;5.53;;
5054;SDS011;13829;48.990;8.346;2023-08-24T12:55:35;11.00;;;5.75;;
5054;SDS011;13829;48.990;8.346;2023-08-24T12:58:05;8.93;;;5.80;;
5054;SDS011;13829;48.990;8.346;2023-08-24T13:00:33;7.55;;;6.22;;
5054;SDS011;13829;48.990;8.346;2023-08-24T13:03:00;8.50;;;5.90;;
5054;SDS011;13829;48.990;8.346;2023-08-24T13:05:27;7.03;;;5.85;;
5054;SDS011;13829;48.990;8.346;2023-08-24T13:07:54;8.07;;;5.57;;
5054;SDS011;13829;48.990;8.346;2023-08-24T13:10:22;8.70;;;5.75;;
5054;SDS011;13829;48.990;8.346;2023-08-24T13:12:50;8.45;;;6.10;;
5054;SDS011;13829;48.990;8.346;2023-08-24T13:15:17;10.68;;;5.97;;
5054;SDS011;13829;48.990;8.346;2023-08-24T13:17:46;9.98;;;6.05;;
5054;SDS011;13829;48.990;8.346;2023-08-24T13:20:13;6.47;;;5.78;;
5054;SDS011;13829;48.990;8.346;2023-08-24T13:22:42;7.72;;;5.90;;
5054;SDS011;13829;48.990;8.346;2023-08-24T13:25:09;6.88;;;5.97;;
5054;SDS011;13829;48.990;8.346;2023-08-24T13:27:36;6.50;;;5.80;;
5054;SDS011;13829;48.990;8.346;2023-08-24T13:30:04;6.63;;;5.68;;
5054;SDS011;13829;48.990;8.346;2023-08-24T13:32:32;9.88;;;5.97;;
5054;SDS011;13829;48.990;8.346;2023-08-24T13:35:01;11.15;;;6.15;;
5054;SDS011;13829;48.990;8.346;2023-08-24T13:37:28;7.80;;;6.20;;
5054;SDS011;13829;48.990;8.346;2023-08-24T13:39:57;6.68;;;5.78;;
5054;SDS011;13829;48.990;8.346;2023-08-24T13:42:25;6.50;;;5.88;;
5054;SDS011;13829;48.990;8.346;2023-08-24T13:44:52;7.25;;;6.00;;
5054;SDS011;13829;48.990;8.346;2023-08-24T13:47:19;8.98;;;5.93;;
5054;SDS011;13829;48.990;8.346;2023-08-24T13:49:46;11.43;;;6.38;;
5054;SDS011;13829;48.990;8.346;2023-08-24T13:52:15;8.68;;;6.20;;
5054;SDS011;13829;48.990;8.346;2023-08-24T13:54:44;8.88;;;6.03;;
5054;SDS011;13829;48.990;8.346;2023-08-24T13:57:12;9.35;;;6.45;;
5054;SDS011;13829;48.990;8.346;2023-08-24T13:59:39;7.28;;;6.57;;
5054;SDS011;13829;48.990;8.346;2023-08-24T14:02:06;7.68;;;6.00;;
5054;SDS011;13829;48.990;8.346;2023-08-24T14:04:33;7.57;;;6.68;;
5054;SDS011;13829;48.990;8.346;2023-08-24T14:07:00;6.97;;;6.10;;
5054;SDS011;13829;48.990;8.346;2023-08-24T14:09:28;9.63;;;6.60;;
5054;SDS011;13829;48.990;8.346;2023-08-24T14:11:55;11.27;;;6.80;;
5054;SDS011;13829;48.990;8.346;2023-08-24T14:14:22;8.02;;;6.55;;
5054;SDS011;13829;48.990;8.346;2023-08-24T14:16:53;19.98;;;9.68;;
5054;SDS011;13829;48.990;8.346;2023-08-24T14:19:21;15.95;;;9.93;;
5054;SDS011;13829;48.990;8.346;2023-08-24T14:21:49;15.27;;;10.85;;
5054;SDS011;13829;48.990;8.346;2023-08-24T14:24:16;13.25;;;11.00;;
5054;SDS011;13829;48.990;8.346;2023-08-24T14:26:44;17.88;;;11.02;;
5054;SDS011;13829;48.990;8.346;2023-08-24T14:29:11;13.35;;;10.18;;
5054;SDS011;13829;48.990;8.346;2023-08-24T14:31:39;13.30;;;10.18;;
5054;SDS011;13829;48.990;8.346;2023-08-24T14:34:06;12.88;;;10.32;;
5054;SDS011;13829;48.990;8.346;2023-08-24T14:36:33;14.25;;;10.55;;
5054;SDS011;13829;48.990;8.346;2023-08-24T14:39:00;16.40;;;9.95;;
5054;SDS011;13829;48.990;8.346;2023-08-24T14:41:27;11.90;;;9.88;;
5054;SDS011;13829;48.990;8.346;2023-08-24T14:43:56;11.25;;;10.25;;
5054;SDS011;13829;48.990;8.346;2023-08-24T14:46:23;14.50;;;10.77;;
5054;SDS011;13829;48.990;8.346;2023-08-24T14:48:50;14.23;;;10.30;;
5054;SDS011;13829;48.990;8.346;2023-08-24T14:51:17;12.55;;;11.27;;
5054;SDS011;13829;48.990;8.346;2023-08-24T14:53:44;14.30;;;10.85;;
5054;SDS011;13829;48.990;8.346;2023-08-24T14:56:11;12.43;;;11.07;;
5054;SDS011;13829;48.990;8.346;2023-08-24T14:58:38;14.15;;;11.75;;
5054;SDS011;13829;48.990;8.346;2023-08-24T15:01:06;14.07;;;11.10;;
5054;SDS011;13829;48.990;8.346;2023-08-24T15:03:33;13.15;;;10.55;;
5054;SDS011;13829;48.990;8.346;2023-08-24T15:06:02;15.65;;;10.90;;